Time;durP1;ratioP1;P1;durP2;ratioP2;P2;SDS_P1;SDS_P2;PMS_P1;PMS_P2;Temp;Humidity;BMP_temperature;BMP_pressure;BME280_temperature;BME280_humidity;BME280_pressure;Samples;Min_cycle;Max_cycle;Signal;HPM_P1;HPM_P2
2023/04/07 00:01:36;;;;;;;28.30;18.10;;;;;;;7.69;100.00;101446.53;5072714;28;20048;-76
2023/04/07 00:04:02;;;;;;;29.65;18.02;;;;;;;7.45;100.00;101419.25;5073194;28;20070;-76
2023/04/07 00:06:27;;;;;;;29.67;16.40;;;;;;;7.70;100.00;101467.94;5073238;28;20036;-75
2023/04/07 00:08:52;;;;;;;24.52;15.38;;;;;;;7.64;100.00;101455.31;5072076;28;20053;-75
2023/04/07 00:11:18;;;;;;;20.48;14.10;;;;;;;7.54;100.00;101444.56;5072976;28;20387;-77
2023/04/07 00:13:43;;;;;;;21.45;14.70;;;;;;;7.66;100.00;101463.78;5072989;28;20024;-76
2023/04/07 00:16:08;;;;;;;22.13;14.35;;;;;;;7.54;100.00;101442.00;5072915;28;20531;-75
2023/04/07 00:18:34;;;;;;;24.10;13.15;;;;;;;7.56;100.00;101455.63;5072954;28;20555;-75
2023/04/07 00:20:59;;;;;;;19.95;12.43;;;;;;;7.55;100.00;101453.94;5072088;28;20028;-76
2023/04/07 00:23:25;;;;;;;17.70;10.57;;;;;;;7.60;100.00;101475.16;5072600;28;20032;-76
2023/04/07 00:25:51;;;;;;;19.02;10.43;;;;;;;7.59;100.00;101468.38;5072882;28;20386;-75
2023/04/07 00:28:16;;;;;;;16.23;10.05;;;;;;;7.58;100.00;101466.69;5072850;28;20029;-76
2023/04/07 00:30:42;;;;;;;16.70;9.98;;;;;;;7.49;100.00;101446.50;5072459;28;20446;-76
2023/04/07 00:33:07;;;;;;;21.95;11.23;;;;;;;7.48;100.00;101448.25;5072329;28;20355;-76
2023/04/07 00:35:32;;;;;;;17.95;11.68;;;;;;;7.29;100.00;101415.63;5072592;28;20116;-79
2023/04/07 00:37:58;;;;;;;18.42;11.90;;;;;;;7.55;100.00;101460.81;5072759;28;20420;-76
2023/04/07 00:40:23;;;;;;;20.23;13.43;;;;;;;7.54;100.00;101456.59;5072641;28;20028;-76
2023/04/07 00:42:49;;;;;;;22.98;13.45;;;;;;;7.46;100.00;101447.44;5088072;28;20195;-75
2023/04/07 00:45:14;;;;;;;23.33;14.95;;;;;;;7.38;100.00;101425.53;5072632;28;20036;-75
2023/04/07 00:47:40;;;;;;;22.95;14.60;;;;;;;7.46;100.00;101446.59;5072278;28;20020;-75
2023/04/07 00:50:06;;;;;;;24.17;14.50;;;;;;;7.31;100.00;101427.50;5072423;28;20036;-75
2023/04/07 00:52:32;;;;;;;20.77;13.40;;;;;;;7.37;100.00;101440.09;5072402;28;20385;-76
2023/04/07 00:54:59;;;;;;;20.23;13.30;;;;;;;7.47;100.00;101454.28;5072217;28;20467;-76
2023/04/07 00:57:24;;;;;;;22.52;13.85;;;;;;;7.47;100.00;101459.41;5072558;28;20601;-76
2023/04/07 00:59:53;;;;;;;23.33;13.00;;;;;;;7.47;100.00;101456.84;5072431;28;20041;-77
2023/04/07 01:02:26;;;;;;;16.25;11.30;;;;;;;7.46;100.00;101456.88;5072192;28;20025;-85
2023/04/07 01:04:59;;;;;;;18.92;11.30;;;;;;;7.46;100.00;101459.44;5072515;28;20107;-85
2023/04/07 01:07:34;;;;;;;15.35;10.65;;;;;;;7.45;100.00;101458.63;5072368;28;20020;-76
2023/04/07 01:10:04;;;;;;;18.75;11.60;;;;;;;7.39;100.00;101445.19;5072453;28;20093;-87
2023/04/07 01:13:00;;;;;;;17.17;11.77;;;;;;;7.45;100.00;101450.06;5072453;28;20056;-86
2023/04/07 01:15:29;;;;;;;18.60;12.30;;;;;;;7.46;100.00;101456.88;5072419;28;20078;-85
2023/04/07 01:18:06;;;;;;;20.75;12.80;;;;;;;7.45;100.00;101457.78;5072352;28;20031;-87
2023/04/07 01:20:32;;;;;;;17.20;12.48;;;;;;;7.45;100.00;101458.63;5072254;28;20025;-87
2023/04/07 01:23:03;;;;;;;23.23;14.18;;;;;;;7.42;100.00;101463.88;5072097;28;20093;-86
2023/04/07 01:25:49;;;;;;;25.75;14.65;;;;;;;7.43;100.00;101463.00;5072457;28;20024;-75
2023/04/07 01:28:43;;;;;;;20.30;14.07;;;;;;;7.43;100.00;101464.72;5072412;28;20032;-76
2023/04/07 01:31:11;;;;;;;19.95;12.90;;;;;;;7.41;100.00;101467.34;5072101;28;20115;-75
2023/04/07 01:33:39;;;;;;;21.80;12.70;;;;;;;7.39;100.00;101464.00;5075423;28;20024;-74
2023/04/07 01:36:06;;;;;;;21.65;11.88;;;;;;;6.65;100.00;101351.38;5075827;28;20024;-76
2023/04/07 01:38:33;;;;;;;17.80;11.07;;;;;;;7.29;100.00;101456.72;5075916;28;20029;-75
2023/04/07 01:41:00;;;;;;;18.63;10.77;;;;;;;7.39;100.00;101476.03;5076046;28;20074;-75
2023/04/07 01:43:27;;;;;;;14.45;9.05;;;;;;;7.26;100.00;101457.66;5075744;28;20028;-75
2023/04/07 01:45:54;;;;;;;12.20;6.50;;;;;;;7.24;100.00;101463.78;5075751;28;20116;-79
2023/04/07 01:48:20;;;;;;;12.85;6.18;;;;;;;7.27;100.00;101484.19;5075640;28;20023;-75
2023/04/07 01:50:46;;;;;;;9.35;5.43;;;;;;;7.24;100.00;101480.03;5075433;28;20029;-76
2023/04/07 01:53:14;;;;;;;11.18;5.00;;;;;;;7.21;100.00;101479.31;5075903;28;20020;-76
2023/04/07 01:55:40;;;;;;;12.98;5.38;;;;;;;7.14;100.00;101474.41;5075785;28;20029;-80
2023/04/07 01:58:06;;;;;;;11.27;5.60;;;;;;;7.18;100.00;101478.53;5074303;28;20074;-77
2023/04/07 02:00:33;;;;;;;12.30;6.03;;;;;;;7.19;100.00;101479.38;5075392;28;20048;-85
2023/04/07 02:03:06;;;;;;;10.27;5.30;;;;;;;7.18;100.00;101483.69;5075356;28;20032;-75
2023/04/07 02:05:35;;;;;;;12.05;6.32;;;;;;;7.18;100.00;101488.81;5075379;28;20048;-87
2023/04/07 02:08:04;;;;;;;11.23;6.15;;;;;;;7.14;100.00;101484.66;5075493;28;20032;-77
2023/04/07 02:10:34;;;;;;;10.93;5.72;;;;;;;7.16;100.00;101488.00;5075578;28;20024;-85
2023/04/07 02:13:02;;;;;;;10.98;6.47;;;;;;;7.19;100.00;101487.09;5075537;28;20029;-85
2023/04/07 02:15:30;;;;;;;12.02;6.18;;;;;;;7.18;100.00;101498.25;5075414;28;20016;-87
2023/04/07 02:17:57;;;;;;;11.90;6.40;;;;;;;7.19;100.00;101498.19;5075074;28;20029;-87
2023/04/07 02:20:23;;;;;;;12.88;5.95;;;;;;;7.11;100.00;101483.97;5075323;28;20654;-84
2023/04/07 02:22:48;;;;;;;11.18;5.72;;;;;;;7.17;100.00;101491.41;5075404;28;20071;-76
2023/04/07 02:25:30;;;;;;;12.65;5.70;;;;;;;7.21;100.00;101492.16;5075354;28;20478;-88
2023/04/07 02:27:57;;;;;;;10.95;5.95;;;;;;;7.22;100.00;101498.97;5075228;28;20086;-81
2023/04/07 02:30:24;;;;;;;12.35;6.63;;;;;;;7.23;100.00;101505.78;5075376;28;20359;-85
2023/04/07 02:32:49;;;;;;;14.30;6.78;;;;;;;7.07;100.00;101464.41;5074766;28;20066;-87
2023/04/07 02:35:18;;;;;;;11.75;6.57;;;;;;;7.22;100.00;101488.69;5073956;28;20025;-77
2023/04/07 02:37:45;;;;;;;12.77;6.63;;;;;;;7.22;100.00;101488.69;5074975;28;20509;-87
2023/04/07 02:40:10;;;;;;;13.30;6.55;;;;;;;7.15;100.00;101476.06;5075026;28;20093;-86
2023/04/07 02:42:36;;;;;;;12.82;6.63;;;;;;;7.23;100.00;101487.78;5074950;28;20466;-77
2023/04/07 02:45:05;;;;;;;13.20;6.25;;;;;;;7.11;100.00;101471.97;5074172;28;20445;-84
2023/04/07 02:47:32;;;;;;;11.52;6.22;;;;;;;7.10;100.00;101467.72;5072875;28;20040;-81
2023/04/07 02:49:57;;;;;;;12.48;6.25;;;;;;;7.21;100.00;101482.72;5074895;28;20032;-86
2023/04/07 02:52:23;;;;;;;11.48;6.88;;;;;;;7.20;100.00;101481.03;5074948;28;20136;-88
2023/04/07 02:54:48;;;;;;;12.50;7.05;;;;;;;7.23;100.00;101486.06;5074601;28;20024;-87
2023/04/07 02:57:13;;;;;;;12.98;6.80;;;;;;;7.23;100.00;101492.94;5074583;28;20035;-86
2023/04/07 02:59:40;;;;;;;11.57;6.53;;;;;;;7.24;100.00;101492.03;5074253;28;20024;-87
2023/04/07 03:02:05;;;;;;;12.52;7.07;;;;;;;7.22;100.00;101489.53;5074643;28;20020;-84
2023/04/07 03:04:31;;;;;;;12.23;6.57;;;;;;;7.21;100.00;101492.16;5074366;28;20090;-78
2023/04/07 03:06:56;;;;;;;10.93;6.45;;;;;;;7.21;100.00;101492.16;5072976;28;20110;-80
2023/04/07 03:09:22;;;;;;;13.85;7.13;;;;;;;7.13;100.00;101480.44;5074580;28;20036;-86
2023/04/07 03:11:48;;;;;;;14.73;6.78;;;;;;;7.19;100.00;101493.06;5074345;28;20029;-86
2023/04/07 03:14:13;;;;;;;13.02;6.88;;;;;;;7.18;100.00;101488.81;5074266;28;20324;-86
2023/04/07 03:16:38;;;;;;;14.50;6.72;;;;;;;7.17;100.00;101492.25;5074150;28;20021;-87
2023/04/07 03:19:04;;;;;;;14.00;6.72;;;;;;;7.13;100.00;101482.16;5074109;28;20081;-84
2023/04/07 03:21:30;;;;;;;11.13;6.30;;;;;;;7.21;100.00;101484.44;5072832;28;20044;-76
2023/04/07 03:23:56;;;;;;;14.68;6.60;;;;;;;7.18;100.00;101488.81;5074212;28;20028;-78
2023/04/07 03:26:21;;;;;;;14.52;6.35;;;;;;;7.12;100.00;101481.31;5074047;28;20539;-77
2023/04/07 03:28:47;;;;;;;15.00;6.55;;;;;;;7.18;100.00;101493.13;5074023;28;20032;-76
2023/04/07 03:31:12;;;;;;;15.25;6.70;;;;;;;7.00;100.00;101465.56;5074017;28;20028;-80
2023/04/07 03:33:37;;;;;;;13.15;6.65;;;;;;;7.04;100.00;101475.66;5072325;28;20025;-78
2023/04/07 03:36:03;;;;;;;12.27;6.05;;;;;;;7.14;100.00;101494.94;5073856;28;20029;-79
2023/04/07 03:38:29;;;;;;;14.10;6.50;;;;;;;7.13;100.00;101495.84;5073966;28;20125;-76
2023/04/07 03:40:54;;;;;;;11.82;6.30;;;;;;;7.15;100.00;101501.75;5073892;28;20482;-77
2023/04/07 03:43:19;;;;;;;17.85;6.50;;;;;;;7.06;100.00;101486.69;5073472;28;20107;-76
2023/04/07 03:45:45;;;;;;;12.85;6.30;;;;;;;7.11;100.00;101500.22;5072024;28;20056;-75
2023/04/07 03:48:11;;;;;;;13.45;6.15;;;;;;;7.10;100.00;101488.25;5073646;28;20012;-76
2023/04/07 03:50:40;;;;;;;14.13;6.00;;;;;;;7.16;100.00;101498.28;5073533;28;20049;-76
2023/04/07 03:53:05;;;;;;;14.45;6.18;;;;;;;7.12;100.00;101496.75;5073618;28;20020;-76
2023/04/07 03:55:32;;;;;;;15.95;6.03;;;;;;;7.06;100.00;101489.25;5072721;28;20043;-75
2023/04/07 03:57:58;;;;;;;16.17;6.57;;;;;;;7.17;100.00;101509.41;5073376;28;20024;-76
2023/04/07 04:00:23;;;;;;;12.63;6.35;;;;;;;6.97;100.00;101476.75;5073469;28;20140;-76
2023/04/07 04:02:48;;;;;;;15.27;5.97;;;;;;;7.14;100.00;101507.78;5073085;28;20066;-76
2023/04/07 04:05:14;;;;;;;16.45;6.72;;;;;;;6.82;100.00;101460.22;5073191;28;20032;-81
2023/04/07 04:07:39;;;;;;;14.27;6.53;;;;;;;6.97;100.00;101481.06;5055240;28;20406;-76
2023/04/07 04:10:05;;;;;;;16.58;6.38;;;;;;;6.89;100.00;101471.09;5073055;28;20021;-76
2023/04/07 04:12:31;;;;;;;17.50;7.00;;;;;;;6.95;100.00;101475.16;5073026;28;20470;-74
2023/04/07 04:14:56;;;;;;;17.27;7.00;;;;;;;7.06;100.00;101496.13;5073449;28;20025;-77
2023/04/07 04:17:22;;;;;;;14.38;6.35;;;;;;;6.94;100.00;101481.19;5073143;28;20469;-79
2023/04/07 04:19:47;;;;;;;17.33;6.80;;;;;;;6.89;100.00;101481.38;5072802;28;20043;-76
2023/04/07 04:22:12;;;;;;;16.75;7.43;;;;;;;7.03;100.00;101509.09;5073194;28;20374;-76
2023/04/07 04:24:38;;;;;;;17.30;7.72;;;;;;;6.99;100.00;101505.81;5071694;28;20060;-76
2023/04/07 04:27:03;;;;;;;18.27;7.63;;;;;;;6.93;100.00;101498.31;5073047;28;20024;-76
2023/04/07 04:29:29;;;;;;;16.80;8.90;;;;;;;6.89;100.00;101504.47;5072861;28;20029;-77
2023/04/07 04:31:54;;;;;;;19.60;10.00;;;;;;;6.85;100.00;101503.72;5072963;28;20529;-76
2023/04/07 04:34:20;;;;;;;20.10;10.55;;;;;;;6.81;100.00;101498.78;5071083;28;20032;-76
2023/04/07 04:36:47;;;;;;;20.20;9.45;;;;;;;6.75;100.00;101510.09;5072658;28;20021;-76
2023/04/07 04:39:13;;;;;;;23.25;10.88;;;;;;;6.75;100.00;101509.25;5072687;28;20033;-74
2023/04/07 04:41:38;;;;;;;22.80;10.98;;;;;;;6.71;100.00;101512.84;5072801;28;20028;-74
2023/04/07 04:44:04;;;;;;;24.17;11.50;;;;;;;6.68;100.00;101516.34;5072726;28;20025;-75
2023/04/07 04:46:29;;;;;;;20.95;10.38;;;;;;;6.63;100.00;101520.81;5072862;28;20025;-77
2023/04/07 04:48:55;;;;;;;24.42;11.75;;;;;;;6.57;100.00;101524.41;5072699;28;20105;-78
2023/04/07 04:51:20;;;;;;;23.90;12.00;;;;;;;6.53;100.00;101530.56;5072633;28;20054;-75
2023/04/07 04:53:46;;;;;;;22.23;11.10;;;;;;;6.47;100.00;101522.22;5072444;28;20441;-75
2023/04/07 04:56:11;;;;;;;24.75;12.35;;;;;;;6.44;100.00;101515.47;5072755;28;20017;-78
2023/04/07 04:58:44;;;;;;;24.15;11.52;;;;;;;6.61;100.00;101541.41;5087443;28;20047;-83
2023/04/07 05:01:11;;;;;;;23.50;12.18;;;;;;;6.52;100.00;101521.19;5180955;22;20049;-71
2023/04/07 05:03:37;;;;;;;23.58;11.73;;;;;;;6.69;100.00;101537.72;5015782;28;20061;-72
2023/04/07 05:06:02;;;;;;;22.67;11.35;;;;;;;6.66;100.00;101532.69;5039071;28;20099;-72
2023/04/07 05:08:28;;;;;;;27.65;11.23;;;;;;;6.74;100.00;101546.09;5038162;28;20036;-72
2023/04/07 05:10:54;;;;;;;25.42;12.05;;;;;;;6.50;100.00;101499.03;5038689;28;20041;-72
2023/04/07 05:13:19;;;;;;;24.15;10.38;;;;;;;6.67;100.00;101527.50;5020765;28;20061;-72
2023/04/07 05:15:45;;;;;;;20.42;10.38;;;;;;;6.81;100.00;101542.41;5038584;28;20080;-72
2023/04/07 05:18:10;;;;;;;25.00;10.82;;;;;;;6.79;100.00;101533.94;5037635;28;20430;-72
2023/04/07 05:20:35;;;;;;;25.38;11.93;;;;;;;6.78;100.00;101534.81;5038525;28;20033;-73
2023/04/07 05:23:01;;;;;;;26.27;11.43;;;;;;;6.86;100.00;101551.63;5020269;28;20080;-73
2023/04/07 05:25:28;;;;;;;20.58;10.18;;;;;;;6.83;100.00;101545.75;5021263;28;20104;-73
2023/04/07 05:27:53;;;;;;;24.52;11.70;;;;;;;6.86;100.00;101545.66;5039097;28;20029;-72
2023/04/07 05:30:19;;;;;;;24.27;10.90;;;;;;;6.85;100.00;101543.97;5038967;28;20032;-73
2023/04/07 05:32:44;;;;;;;21.77;10.52;;;;;;;6.95;100.00;101557.31;5038724;28;20496;-72
2023/04/07 05:35:10;;;;;;;23.15;10.75;;;;;;;6.80;100.00;101533.03;5038768;28;20362;-72
2023/04/07 05:37:35;;;;;;;23.80;11.38;;;;;;;6.86;100.00;101545.66;5038779;28;20037;-72
2023/04/07 05:40:00;;;;;;;24.63;10.00;;;;;;;6.90;100.00;101554.94;5038958;28;20033;-72
2023/04/07 05:42:26;;;;;;;21.77;10.48;;;;;;;6.86;100.00;101545.66;5020793;28;20029;-73
2023/04/07 05:44:52;;;;;;;23.77;10.35;;;;;;;6.88;100.00;101546.41;5038518;28;20029;-73
2023/04/07 05:47:18;;;;;;;25.80;10.73;;;;;;;7.03;100.00;101561.28;5038763;28;20029;-74
2023/04/07 05:49:46;;;;;;;21.63;10.45;;;;;;;6.93;100.00;101546.28;5038757;28;20038;-73
2023/04/07 05:52:12;;;;;;;27.10;12.00;;;;;;;7.02;100.00;101561.34;5038577;28;20035;-74
2023/04/07 05:54:39;;;;;;;22.35;11.07;;;;;;;7.11;100.00;101566.16;5038781;28;20363;-72
2023/04/07 05:57:05;;;;;;;25.23;11.25;;;;;;;7.15;100.00;101572.84;5038843;28;20092;-72
2023/04/07 05:59:30;;;;;;;22.40;10.73;;;;;;;7.17;100.00;101569.31;5038499;28;20029;-73
2023/04/07 06:01:56;;;;;;;23.00;10.68;;;;;;;7.23;100.00;101564.84;5038512;28;20041;-72
2023/04/07 06:04:21;;;;;;;26.10;11.38;;;;;;;7.20;100.00;101555.53;5038553;28;20037;-73
2023/04/07 06:06:46;;;;;;;22.20;11.15;;;;;;;7.10;100.00;101536.22;5038354;28;20079;-72
2023/04/07 06:09:12;;;;;;;21.55;11.23;;;;;;;7.30;100.00;101574.84;5038838;28;20478;-72
2023/04/07 06:11:37;;;;;;;24.65;11.25;;;;;;;7.19;100.00;101553.88;5038378;28;20489;-72
2023/04/07 06:14:02;;;;;;;22.63;11.50;;;;;;;7.28;100.00;101557.81;5038300;28;20029;-72
2023/04/07 06:16:28;;;;;;;23.23;10.65;;;;;;;7.44;100.00;101576.88;5038466;28;20144;-71
2023/04/07 06:18:53;;;;;;;22.38;11.80;;;;;;;7.46;100.00;101586.19;5035803;28;20427;-78
2023/04/07 06:21:18;;;;;;;28.20;12.13;;;;;;;7.39;100.00;101577.06;5033751;28;20087;-72
2023/04/07 06:23:44;;;;;;;27.00;11.35;;;;;;;7.49;100.00;101582.69;5035242;28;20488;-72
2023/04/07 06:26:10;;;;;;;20.70;10.40;;;;;;;7.51;100.00;101592.91;5035175;28;20033;-73
2023/04/07 06:28:36;;;;;;;25.40;12.00;;;;;;;7.50;100.00;101592.09;5035267;28;20026;-74
2023/04/07 06:31:01;;;;;;;22.42;12.13;;;;;;;7.52;100.00;101594.59;5034965;28;20390;-72
2023/04/07 06:33:27;;;;;;;25.00;12.57;;;;;;;7.32;100.00;101559.38;5035090;28;20110;-73
2023/04/07 06:35:53;;;;;;;23.38;12.43;;;;;;;7.49;100.00;101587.84;5035098;28;20022;-75
2023/04/07 06:38:18;;;;;;;23.20;12.85;;;;;;;7.47;100.00;101584.47;5034890;28;20040;-75
2023/04/07 06:40:43;;;;;;;27.42;11.65;;;;;;;7.42;100.00;101576.13;5035262;28;20025;-77
2023/04/07 06:43:09;;;;;;;24.85;13.38;;;;;;;7.59;100.00;101608.91;5034626;28;20034;-75
2023/04/07 06:45:34;;;;;;;29.35;14.35;;;;;;;7.53;100.00;101606.53;5034782;28;20496;-73
2023/04/07 06:48:00;;;;;;;26.00;12.45;;;;;;;7.47;100.00;101585.34;5034862;28;20057;-74
2023/04/07 06:50:25;;;;;;;21.13;11.57;;;;;;;7.58;100.00;101600.34;5039272;28;20021;-72
2023/04/07 06:52:56;;;;;;;21.98;12.13;;;;;;;7.64;100.00;101614.69;5055479;28;20028;-71
2023/04/07 06:55:22;;;;;;;24.83;12.27;;;;;;;7.67;100.00;101610.28;5054722;28;20051;-72
2023/04/07 06:57:48;;;;;;;23.20;12.50;;;;;;;7.58;100.00;101597.78;5055466;28;20052;-74
2023/04/07 07:00:14;;;;;;;24.20;13.52;;;;;;;7.66;100.00;101607.75;5054740;28;20025;-76
2023/04/07 07:02:39;;;;;;;24.35;12.02;;;;;;;7.75;100.00;101620.25;5053991;28;20103;-76
2023/04/07 07:05:05;;;;;;;23.77;12.45;;;;;;;7.79;100.00;101624.38;5054719;28;20473;-72
2023/04/07 07:07:31;;;;;;;23.98;13.15;;;;;;;7.85;100.00;101625.88;5054668;28;20029;-73
2023/04/07 07:09:56;;;;;;;24.83;12.52;;;;;;;7.89;100.00;101627.44;5053867;28;20024;-74
2023/04/07 07:12:21;;;;;;;26.77;13.82;;;;;;;7.73;100.00;101601.47;5050950;28;20538;-74
2023/04/07 07:14:52;;;;;;;26.98;13.15;;;;;;;7.71;100.00;101604.13;5034254;28;20036;-73
2023/04/07 07:17:18;;;;;;;20.92;12.15;;;;;;;7.38;100.00;101547.13;5032917;28;20029;-74
2023/04/07 07:19:43;;;;;;;19.85;11.75;;;;;;;8.00;100.00;101633.84;5034201;28;20029;-74
2023/04/07 07:22:08;;;;;;;24.08;12.35;;;;;;;7.99;100.00;101608.19;5034116;28;20371;-75
2023/04/07 07:24:34;;;;;;;24.63;11.20;;;;;;;8.32;100.00;101636.84;5033934;28;20537;-73
2023/04/07 07:27:01;;;;;;;14.38;8.82;;;;;;;8.48;100.00;101637.09;5025960;28;20045;-76
2023/04/07 07:29:26;;;;;;;19.88;10.30;;;;;;;8.59;100.00;101645.22;5034155;28;20425;-75
2023/04/07 07:31:52;;;;;;;17.17;8.88;;;;;;;8.49;100.00;101631.91;5033948;28;20071;-75
2023/04/07 07:34:17;;;;;;;15.27;8.27;;;;;;;8.64;100.00;101643.28;5033867;28;20384;-75
2023/04/07 07:36:42;;;;;;;16.42;7.90;;;;;;;8.67;100.00;101645.75;5033758;28;20156;-74
2023/04/07 07:39:08;;;;;;;14.68;7.20;;;;;;;8.62;100.00;101645.91;5033725;28;20120;-73
2023/04/07 07:41:33;;;;;;;13.52;5.80;;;;;;;8.60;100.00;101649.47;5033807;28;20099;-73
2023/04/07 07:43:59;;;;;;;9.05;5.40;;;;;;;8.56;100.00;101650.50;5033613;28;20163;-75
2023/04/07 07:46:24;;;;;;;10.60;5.30;;;;;;;8.59;100.00;101660.66;5033588;28;20041;-73
2023/04/07 07:48:50;;;;;;;10.40;4.68;;;;;;;8.45;100.00;101643.19;5033726;28;20037;-75
2023/04/07 07:51:17;;;;;;;9.18;4.60;;;;;;;8.48;100.00;101652.56;5033709;28;20100;-75
2023/04/07 07:53:43;;;;;;;14.20;5.43;;;;;;;8.57;100.00;101667.63;5033618;28;20072;-73
2023/04/07 07:56:08;;;;;;;8.68;4.65;;;;;;;8.59;100.00;101663.25;5033363;28;20022;-77
2023/04/07 07:58:33;;;;;;;9.35;4.28;;;;;;;8.61;100.00;101670.00;5015478;28;20371;-79
2023/04/07 08:00:59;;;;;;;11.65;5.10;;;;;;;8.48;100.00;101648.25;5033464;28;20179;-74
2023/04/07 08:03:24;;;;;;;9.77;4.10;;;;;;;8.58;100.00;101661.56;5033076;28;20091;-74
2023/04/07 08:05:53;;;;;;;9.05;4.00;;;;;;;8.58;100.00;101657.25;5033405;28;20387;-74
2023/04/07 08:08:18;;;;;;;8.48;4.53;;;;;;;8.77;100.00;101670.19;5033417;28;20367;-75
2023/04/07 08:10:44;;;;;;;10.23;4.60;;;;;;;8.74;100.00;101665.16;5031450;28;20053;-76
2023/04/07 08:13:09;;;;;;;10.70;4.97;;;;;;;8.80;100.00;101671.81;5033328;28;20037;-74
2023/04/07 08:15:41;;;;;;;11.18;4.63;;;;;;;8.59;100.00;101642.66;5033314;28;20481;-74
2023/04/07 08:18:09;;;;;;;10.25;4.78;;;;;;;8.75;100.00;101678.88;5033070;28;20486;-77
2023/04/07 08:20:35;;;;;;;10.52;4.72;;;;;;;8.61;100.00;101662.28;5032899;28;20437;-77
2023/04/07 08:23:02;;;;;;;11.85;5.15;;;;;;;8.72;100.00;101695.28;5033172;28;20018;-74
2023/04/07 08:25:28;;;;;;;11.57;4.70;;;;;;;8.61;100.00;101669.16;5032961;28;20517;-75
2023/04/07 08:27:53;;;;;;;10.20;4.90;;;;;;;8.78;100.00;101689.91;5033102;28;20057;-74
2023/04/07 08:30:20;;;;;;;9.40;4.70;;;;;;;8.83;100.00;101692.28;5032733;28;20040;-74
2023/04/07 08:32:45;;;;;;;14.18;4.55;;;;;;;8.85;100.00;101699.06;5032890;28;20030;-74
2023/04/07 08:35:11;;;;;;;13.10;4.43;;;;;;;8.89;100.00;101692.88;5032753;28;20091;-73
2023/04/07 08:37:37;;;;;;;10.95;3.90;;;;;;;9.02;100.00;101702.63;5032974;28;20025;-73
2023/04/07 08:40:04;;;;;;;8.23;3.65;;;;;;;9.03;99.77;101702.56;5032861;28;20474;-74
2023/04/07 08:42:31;;;;;;;8.30;3.30;;;;;;;8.92;99.53;101671.28;5014492;28;20025;-74
2023/04/07 08:45:04;;;;;;;6.40;3.05;;;;;;;9.34;99.41;101693.50;5032947;28;20056;-74
2023/04/07 08:47:32;;;;;;;9.63;3.60;;;;;;;9.48;97.42;101691.19;5032465;28;20061;-78
2023/04/07 08:50:01;;;;;;;8.20;3.38;;;;;;;9.60;97.24;101700.09;5014979;28;20030;-74
2023/04/07 08:52:33;;;;;;;9.50;2.85;;;;;;;9.77;95.97;101708.75;5031444;28;20036;-73
2023/04/07 08:55:01;;;;;;;5.13;3.08;;;;;;;9.80;96.01;101694.03;5032482;28;20041;-77
2023/04/07 08:57:29;;;;;;;10.15;3.50;;;;;;;9.99;95.60;101705.19;5032699;28;20032;-75
2023/04/07 08:59:57;;;;;;;9.82;3.30;;;;;;;10.08;92.46;101717.66;5032705;28;20040;-74
2023/04/07 09:02:22;;;;;;;8.10;2.83;;;;;;;9.94;92.72;101714.91;5031072;28;20046;-75
2023/04/07 09:04:48;;;;;;;7.53;3.25;;;;;;;9.94;92.83;101713.16;5032341;28;20029;-79
2023/04/07 09:07:13;;;;;;;7.05;2.85;;;;;;;9.75;91.66;101694.25;5032602;28;20045;-73
2023/04/07 09:09:38;;;;;;;8.02;3.05;;;;;;;9.85;94.36;101721.31;5032318;28;20025;-77
2023/04/07 09:12:04;;;;;;;9.45;3.08;;;;;;;9.83;92.97;101725.69;5032511;28;20032;-78
2023/04/07 09:14:30;;;;;;;6.03;2.80;;;;;;;9.80;95.14;101723.25;5032572;28;20026;-77
2023/04/07 09:16:55;;;;;;;9.93;2.88;;;;;;;9.64;95.30;101706.81;5032280;28;20032;-73
2023/04/07 09:19:23;;;;;;;7.97;3.28;;;;;;;9.49;95.17;101706.56;5032459;28;20031;-76
2023/04/07 09:21:53;;;;;;;8.60;3.80;;;;;;;9.42;95.76;101714.63;5032383;28;20044;-74
2023/04/07 09:24:27;;;;;;;7.40;3.35;;;;;;;9.53;96.58;101727.88;5032267;28;20410;-73
2023/04/07 09:27:16;;;;;;;7.72;3.65;;;;;;;9.68;97.41;101727.22;5032345;28;20131;-78
2023/04/07 09:29:43;;;;;;;6.05;3.05;;;;;;;9.67;94.67;101738.44;5014510;28;20041;-79
2023/04/07 09:32:09;;;;;;;9.98;3.60;;;;;;;9.49;94.67;101732.34;5032230;28;20128;-78
2023/04/07 09:34:37;;;;;;;10.98;3.67;;;;;;;9.45;94.85;101735.16;5030806;28;20161;-76
2023/04/07 09:37:04;;;;;;;7.25;3.40;;;;;;;9.40;94.99;101745.66;5032119;28;20386;-75
2023/04/07 09:39:30;;;;;;;10.52;3.17;;;;;;;9.44;95.88;101736.06;5032327;28;20028;-76
2023/04/07 09:41:56;;;;;;;10.88;2.95;;;;;;;9.51;94.65;101737.44;5032172;28;20033;-76
2023/04/07 09:44:23;;;;;;;12.23;3.67;;;;;;;9.55;95.92;101717.53;5032107;28;20036;-75
2023/04/07 09:46:52;;;;;;;11.90;3.28;;;;;;;9.71;95.75;101727.06;5031993;28;20047;-76
2023/04/07 09:49:19;;;;;;;11.82;3.17;;;;;;;9.59;94.38;101719.91;5029340;28;20029;-76
2023/04/07 09:52:04;;;;;;;8.07;3.00;;;;;;;9.69;93.39;101728.91;5031905;28;20030;-73
2023/04/07 09:54:40;;;;;;;9.02;3.00;;;;;;;9.70;94.06;101734.88;5033955;28;20352;-73
2023/04/07 09:57:10;;;;;;;11.90;3.08;;;;;;;9.65;94.86;101739.44;5036629;28;20029;-75
2023/04/07 09:59:38;;;;;;;13.00;3.30;;;;;;;9.68;95.39;101734.13;5035540;28;20099;-77
2023/04/07 10:02:04;;;;;;;10.73;3.28;;;;;;;9.76;96.10;101743.19;5035420;28;20053;-79
2023/04/07 10:04:30;;;;;;;10.80;3.28;;;;;;;9.76;95.57;101745.78;5035737;28;20037;-77
2023/04/07 10:06:57;;;;;;;9.45;3.05;;;;;;;9.58;95.29;101727.72;5035583;28;20061;-78
2023/04/07 10:09:25;;;;;;;13.13;2.90;;;;;;;9.45;92.63;101723.09;5035885;28;20466;-78
2023/04/07 10:11:51;;;;;;;12.88;3.33;;;;;;;9.22;93.04;101714.66;5035479;28;20375;-77
2023/04/07 10:14:18;;;;;;;7.85;2.70;;;;;;;9.47;92.14;101756.53;5035229;28;20030;-76
2023/04/07 10:16:45;;;;;;;7.60;3.13;;;;;;;9.63;92.85;101760.09;5035413;28;20025;-77
2023/04/07 10:19:12;;;;;;;9.80;3.20;;;;;;;9.69;92.41;101740.94;5035256;28;20029;-77
2023/04/07 10:21:41;;;;;;;5.53;2.42;;;;;;;10.02;91.70;101761.81;5035250;28;20033;-76
2023/04/07 10:24:25;;;;;;;10.65;3.17;;;;;;;10.31;91.27;101761.31;5035189;28;20029;-77
2023/04/07 10:26:58;;;;;;;7.57;2.45;;;;;;;10.13;87.18;101723.47;5035209;28;20489;-78
2023/04/07 10:32:53;;;;;;;8.07;2.75;;;;;;;10.17;89.15;101776.59;5197770;22;20060;-76
2023/04/07 10:35:19;;;;;;;6.38;2.30;;;;;;;10.25;88.03;101768.53;5055002;28;20029;-75
2023/04/07 10:38:07;;;;;;;10.40;3.40;;;;;;;10.33;90.18;101772.44;5051415;28;20170;-73
2023/04/07 10:40:33;;;;;;;9.40;2.67;;;;;;;10.10;90.83;101740.81;5054983;28;20029;-76
2023/04/07 10:42:59;;;;;;;8.20;2.60;;;;;;;10.18;90.87;101777.44;5054773;28;20021;-77
2023/04/07 10:45:54;;;;;;;9.43;3.35;;;;;;;10.14;92.38;101776.75;5054753;28;20359;-75
2023/04/07 10:48:21;;;;;;;10.88;3.38;;;;;;;10.04;92.70;101771.16;5049280;28;20422;-78
2023/04/07 10:51:14;;;;;;;11.50;3.58;;;;;;;10.04;93.39;101784.06;5054750;28;20028;-76
2023/04/07 10:54:15;;;;;;;10.60;3.80;;;;;;;9.73;93.09;101737.31;5054672;28;20389;-75
2023/04/07 10:57:17;;;;;;;10.48;3.90;;;;;;;9.98;92.89;101770.59;4990549;28;20056;-76
2023/04/07 11:00:10;;;;;;;8.90;3.55;;;;;;;10.06;92.67;101782.25;4916459;29;20055;-75
2023/04/07 11:02:38;;;;;;;16.45;4.35;;;;;;;9.86;94.18;101760.84;5007224;22;21164;-75
2023/04/07 11:05:05;;;;;;;12.20;4.13;;;;;;;9.86;92.25;101777.16;5073730;28;20044;-76
2023/04/07 11:07:44;;;;;;;12.15;3.50;;;;;;;9.90;93.51;101783.00;5074504;28;20385;-74
2023/04/07 11:10:14;;;;;;;11.73;4.28;;;;;;;9.56;91.85;101726.94;5074461;28;20024;-79
2023/04/07 11:12:40;;;;;;;9.48;3.40;;;;;;;9.71;91.54;101772.66;5074580;28;20017;-75
2023/04/07 11:15:21;;;;;;;12.98;3.60;;;;;;;9.84;92.25;101784.13;5074413;28;20028;-76
2023/04/07 11:18:05;;;;;;;9.85;3.95;;;;;;;9.88;91.25;101785.66;5074118;28;20029;-76
2023/04/07 11:20:53;;;;;;;11.98;4.50;;;;;;;10.04;92.04;101789.22;5074169;28;20044;-76
2023/04/07 11:23:22;;;;;;;8.70;3.20;;;;;;;10.00;90.50;101777.34;5074131;28;20416;-74